Time;durP1;ratioP1;P1;durP2;ratioP2;P2;SDS_P1;SDS_P2;PMS_P1;PMS_P2;Temp;Humidity;BMP_temperature;BMP_pressure;BME280_temperature;BME280_humidity;BME280_pressure;Samples;Min_cycle;Max_cycle;Signal;HPM_P1;HPM_P2
2023/03/23 00:02:22;;;;;;;25.48;17.08;;;;;;;12.31;58.66;101325.16;5032412;28;20391;-76
2023/03/23 00:04:49;;;;;;;29.60;22.20;;;;;;;12.37;58.35;101332.47;5032797;28;20375;-76
2023/03/23 00:07:20;;;;;;;32.87;22.33;;;;;;;12.41;58.03;101325.81;5032825;28;20469;-75
2023/03/23 00:09:47;;;;;;;30.60;19.50;;;;;;;12.31;58.20;101319.84;5032399;28;20881;-75
2023/03/23 00:12:15;;;;;;;37.10;23.20;;;;;;;12.31;58.31;101319.00;5032866;28;20378;-76
2023/03/23 00:14:41;;;;;;;30.33;21.83;;;;;;;12.09;58.52;101310.69;5032186;28;20472;-76
2023/03/23 00:17:10;;;;;;;29.42;21.60;;;;;;;12.23;58.26;101319.84;5032411;28;20379;-76
2023/03/23 00:19:45;;;;;;;30.15;22.02;;;;;;;12.29;58.05;101319.16;5031335;28;20398;-76
2023/03/23 00:22:12;;;;;;;25.38;20.55;;;;;;;12.32;57.59;101318.03;5031215;28;20406;-76
2023/03/23 00:24:38;;;;;;;22.95;18.88;;;;;;;12.26;57.72;101314.19;5032161;28;20370;-77
2023/03/23 00:27:03;;;;;;;26.13;19.37;;;;;;;12.25;58.04;101320.50;5032339;28;20448;-76
2023/03/23 00:29:29;;;;;;;24.77;19.15;;;;;;;12.20;58.13;101322.81;5032460;28;20405;-76
2023/03/23 00:31:56;;;;;;;25.53;19.40;;;;;;;12.19;58.08;101315.84;5032087;28;20739;-76
2023/03/23 00:34:24;;;;;;;23.60;18.45;;;;;;;12.23;57.82;101319.84;5031177;28;20487;-76
2023/03/23 00:36:56;;;;;;;22.88;19.02;;;;;;;12.09;58.07;101323.16;5032039;28;20401;-76
2023/03/23 00:39:24;;;;;;;25.20;19.45;;;;;;;12.02;58.69;101312.34;5031935;28;20378;-77
2023/03/23 00:41:50;;;;;;;23.77;18.83;;;;;;;12.04;58.46;101319.16;5036942;28;20383;-76
2023/03/23 00:44:19;;;;;;;24.40;18.48;;;;;;;12.06;57.98;101311.00;5039138;28;20401;-76
2023/03/23 00:46:48;;;;;;;25.00;18.45;;;;;;;12.04;57.96;101321.81;5039320;28;20378;-75
2023/03/23 00:49:30;;;;;;;23.27;18.00;;;;;;;12.02;57.90;101318.50;5038963;28;20473;-75
2023/03/23 00:51:57;;;;;;;23.95;18.33;;;;;;;12.06;57.57;101316.34;5033046;28;20518;-75
2023/03/23 00:54:24;;;;;;;23.92;17.98;;;;;;;12.05;57.50;101314.69;5041150;28;20440;-76
2023/03/23 00:56:50;;;;;;;20.92;16.20;;;;;;;11.95;57.60;101314.00;5038461;28;20385;-76
2023/03/23 00:59:15;;;;;;;20.98;16.00;;;;;;;11.91;57.62;101318.00;5043263;28;20384;-75
2023/03/23 01:01:41;;;;;;;23.27;16.47;;;;;;;11.84;57.71;101307.97;5042134;28;20728;-75
2023/03/23 01:04:08;;;;;;;22.60;15.87;;;;;;;11.80;57.72;101308.47;5038477;28;20469;-75
2023/03/23 01:06:39;;;;;;;22.13;16.27;;;;;;;11.77;57.74;101317.59;5033849;28;20386;-76
2023/03/23 01:09:14;;;;;;;24.73;16.33;;;;;;;11.78;57.66;101318.44;5031289;28;20379;-75
2023/03/23 01:11:43;;;;;;;20.20;15.45;;;;;;;11.75;57.41;101318.75;5031009;28;20535;-75
2023/03/23 01:14:09;;;;;;;19.73;14.85;;;;;;;11.59;58.08;101316.88;5031305;28;20401;-76
2023/03/23 01:16:35;;;;;;;19.57;15.27;;;;;;;11.33;58.45;101317.81;5031322;28;20437;-76
2023/03/23 01:19:00;;;;;;;21.30;14.90;;;;;;;11.08;59.33;101320.34;5031466;28;20385;-76
2023/03/23 01:21:26;;;;;;;20.13;14.68;;;;;;;10.98;59.88;101324.91;5031438;28;20378;-77
2023/03/23 01:23:52;;;;;;;14.50;12.13;;;;;;;10.99;59.70;101326.59;5031328;28;20449;-76
2023/03/23 01:26:20;;;;;;;17.58;14.38;;;;;;;10.95;59.69;101321.75;5031052;28;20386;-76
2023/03/23 01:28:46;;;;;;;17.25;14.35;;;;;;;10.76;60.01;101320.97;5030197;28;20497;-76
2023/03/23 01:31:14;;;;;;;14.05;12.55;;;;;;;10.65;60.29;101335.34;5031022;28;20473;-76
2023/03/23 01:33:41;;;;;;;16.17;12.50;;;;;;;10.56;60.36;101328.31;5030978;28;20406;-77
2023/03/23 01:36:10;;;;;;;14.20;11.48;;;;;;;10.45;60.77;101337.34;5031124;28;20436;-76
2023/03/23 01:38:36;;;;;;;13.60;11.30;;;;;;;10.45;61.06;101339.16;5031320;28;20367;-76
2023/03/23 01:41:03;;;;;;;12.47;10.70;;;;;;;10.37;61.37;101339.94;5029905;28;20854;-76
2023/03/23 01:43:28;;;;;;;11.57;10.35;;;;;;;10.33;61.74;101336.78;5031057;28;20850;-76
2023/03/23 01:45:54;;;;;;;13.45;10.75;;;;;;;10.25;61.40;101333.19;5030065;28;20406;-76
2023/03/23 01:48:35;;;;;;;12.27;10.57;;;;;;;10.22;61.75;101336.13;5031517;28;20463;-76
2023/03/23 01:51:12;;;;;;;12.77;10.18;;;;;;;10.15;62.00;101327.94;5029877;28;20442;-76
2023/03/23 01:53:44;;;;;;;13.77;11.23;;;;;;;10.28;61.66;101328.41;5030812;28;20413;-76
2023/03/23 01:56:13;;;;;;;12.40;10.80;;;;;;;10.56;61.11;101335.44;5030954;28;20382;-76
2023/03/23 01:58:40;;;;;;;12.27;9.98;;;;;;;10.67;60.24;101324.56;5048250;28;20376;-76
2023/03/23 02:01:11;;;;;;;11.93;9.80;;;;;;;10.71;59.85;101332.06;5049224;28;20383;-76
2023/03/23 02:03:39;;;;;;;12.80;10.88;;;;;;;10.70;59.88;101318.97;5044534;28;20373;-76
2023/03/23 02:06:05;;;;;;;12.37;10.30;;;;;;;10.68;60.12;101329.72;5031241;28;21218;-76
2023/03/23 02:08:32;;;;;;;11.82;10.23;;;;;;;10.77;60.00;101325.31;5033895;28;20378;-76
2023/03/23 02:10:58;;;;;;;14.57;11.32;;;;;;;10.84;59.80;101326.34;5034632;28;20446;-77
2023/03/23 02:13:25;;;;;;;27.55;19.27;;;;;;;10.79;60.62;101327.81;5034032;28;20414;-76
2023/03/23 02:16:03;;;;;;;26.95;18.88;;;;;;;10.85;60.84;101319.22;5034705;28;20448;-77
2023/03/23 02:18:45;;;;;;;25.40;18.45;;;;;;;10.93;60.93;101331.69;5034669;28;20378;-77
2023/03/23 02:21:10;;;;;;;31.38;20.05;;;;;;;10.75;61.83;101329.09;5034023;28;20374;-77
2023/03/23 02:23:38;;;;;;;24.63;18.23;;;;;;;10.71;61.95;101323.28;5033721;28;20375;-77
2023/03/23 02:26:38;;;;;;;32.55;20.23;;;;;;;10.75;61.89;101335.25;5033838;28;20782;-76
2023/03/23 02:29:09;;;;;;;32.80;20.92;;;;;;;10.76;62.38;101320.97;5033623;28;20374;-76
2023/03/23 02:31:47;;;;;;;39.58;22.02;;;;;;;10.86;62.09;101336.81;5033383;28;20747;-76
2023/03/23 02:34:20;;;;;;;44.70;22.23;;;;;;;10.82;62.60;101332.78;5033619;28;20410;-76
2023/03/23 02:37:13;;;;;;;91.53;24.35;;;;;;;10.85;62.57;101345.75;5032655;28;20378;-77
2023/03/23 02:39:53;;;;;;;59.75;24.45;;;;;;;10.92;62.41;101343.31;5033194;28;20385;-77
2023/03/23 02:42:26;;;;;;;49.58;25.10;;;;;;;10.89;62.71;101350.59;5033457;28;20377;-76
2023/03/23 02:44:54;;;;;;;45.08;26.10;;;;;;;10.97;62.81;101346.31;5033452;28;20885;-77
2023/03/23 02:47:24;;;;;;;43.28;24.55;;;;;;;10.99;62.71;101347.00;5033430;28;20877;-76
2023/03/23 02:49:54;;;;;;;50.50;24.35;;;;;;;11.03;62.52;101348.34;5033387;28;20889;-76
2023/03/23 02:52:24;;;;;;;47.33;25.00;;;;;;;10.94;62.97;101350.09;5032908;28;20990;-76
2023/03/23 02:54:52;;;;;;;56.00;25.02;;;;;;;10.97;63.17;101357.75;5033475;28;20410;-76
2023/03/23 02:57:22;;;;;;;60.00;24.80;;;;;;;10.97;62.90;101352.44;5033909;28;20457;-76
2023/03/23 02:59:47;;;;;;;39.95;20.95;;;;;;;10.76;62.87;101358.09;5033778;28;20480;-76
2023/03/23 03:02:17;;;;;;;43.25;20.08;;;;;;;10.56;63.24;101354.81;5033743;28;20880;-76
2023/03/23 03:04:48;;;;;;;33.35;18.05;;;;;;;10.44;63.82;101358.69;5033401;28;20374;-76
2023/03/23 03:07:45;;;;;;;32.38;18.85;;;;;;;10.46;63.15;101359.38;5033099;28;20386;-76
2023/03/23 03:10:24;;;;;;;33.95;19.02;;;;;;;10.45;62.42;101358.53;5032747;28;20379;-76
2023/03/23 03:13:22;;;;;;;35.17;19.65;;;;;;;10.32;62.70;101363.41;5033207;28;20414;-76
2023/03/23 03:16:25;;;;;;;37.92;22.17;;;;;;;10.26;62.71;101370.13;5033573;28;20480;-76
2023/03/23 03:18:56;;;;;;;38.45;19.38;;;;;;;10.23;62.20;101361.66;5032668;28;20355;-76
2023/03/23 03:21:27;;;;;;;37.73;21.13;;;;;;;10.20;62.40;101375.19;5032882;28;20394;-76
2023/03/23 03:23:56;;;;;;;55.33;21.83;;;;;;;10.18;62.58;101374.50;5033444;28;20413;-76
2023/03/23 03:26:26;;;;;;;35.47;20.25;;;;;;;10.13;63.21;101369.66;5033410;28;20383;-75
2023/03/23 03:28:53;;;;;;;44.03;23.50;;;;;;;10.17;62.83;101370.19;5033069;28;20384;-75
2023/03/23 03:31:23;;;;;;;43.55;20.38;;;;;;;10.09;63.39;101368.31;5033207;28;20389;-75
2023/03/23 03:33:50;;;;;;;42.55;22.10;;;;;;;10.01;63.40;101376.16;5032931;28;20410;-75
2023/03/23 03:36:21;;;;;;;44.05;19.67;;;;;;;10.01;63.85;101379.66;5032766;28;20378;-76
2023/03/23 03:38:49;;;;;;;50.47;27.80;;;;;;;10.22;63.86;101378.53;5032858;28;20422;-75
2023/03/23 03:41:15;;;;;;;54.85;19.70;;;;;;;10.35;63.48;101376.34;5032818;28;20748;-76
2023/03/23 03:43:41;;;;;;;49.00;19.00;;;;;;;10.43;62.81;101383.56;5033339;28;20395;-76
2023/03/23 03:46:06;;;;;;;47.95;20.20;;;;;;;10.30;62.85;101384.72;5033314;28;20394;-76
2023/03/23 03:48:32;;;;;;;49.60;19.80;;;;;;;10.31;63.22;101383.75;5033248;28;20378;-77
2023/03/23 03:51:00;;;;;;;52.45;21.70;;;;;;;10.23;63.76;101381.03;5031307;28;20916;-76
2023/03/23 03:53:26;;;;;;;47.13;20.58;;;;;;;10.26;63.43;101382.53;5032716;28;20406;-77
2023/03/23 03:55:55;;;;;;;46.30;20.60;;;;;;;10.17;64.07;101381.59;5032567;28;20393;-77
2023/03/23 03:58:22;;;;;;;43.50;22.07;;;;;;;10.32;63.82;101377.50;5031656;28;20391;-76
2023/03/23 04:00:50;;;;;;;49.17;20.45;;;;;;;10.31;63.51;101385.59;5032904;28;20374;-77
2023/03/23 04:03:16;;;;;;;63.25;20.02;;;;;;;10.23;63.94;101377.56;5032705;28;20444;-76
2023/03/23 04:05:44;;;;;;;55.88;19.63;;;;;;;10.37;63.57;101378.84;5032113;28;20934;-76
2023/03/23 04:08:11;;;;;;;43.28;19.40;;;;;;;10.42;63.76;101373.94;5032426;28;20382;-76
2023/03/23 04:10:37;;;;;;;56.03;19.98;;;;;;;10.48;63.54;101389.22;5031402;28;20402;-75
2023/03/23 04:13:04;;;;;;;73.38;23.67;;;;;;;10.56;63.45;101378.69;5031405;28;20418;-76
2023/03/23 04:15:30;;;;;;;68.20;21.53;;;;;;;10.47;63.29;101383.06;5032978;28;20410;-76
2023/03/23 04:17:56;;;;;;;65.03;20.40;;;;;;;10.46;63.54;101381.44;5032187;28;20469;-76
2023/03/23 04:20:23;;;;;;;59.83;21.55;;;;;;;10.30;63.69;101384.72;5031823;28;20396;-77
2023/03/23 04:22:49;;;;;;;67.38;20.98;;;;;;;10.05;64.77;101385.50;5031952;28;20374;-75
2023/03/23 04:25:20;;;;;;;52.47;20.85;;;;;;;9.95;65.38;101386.34;5031955;28;20390;-76
2023/03/23 04:27:52;;;;;;;62.90;20.38;;;;;;;10.04;64.83;101392.56;5032319;28;20408;-75
2023/03/23 04:30:19;;;;;;;57.47;20.45;;;;;;;9.90;65.12;101379.84;5031564;28;20394;-76
2023/03/23 04:32:45;;;;;;;73.57;20.63;;;;;;;9.75;65.51;101385.66;5032116;28;20909;-75
2023/03/23 04:35:13;;;;;;;50.83;20.47;;;;;;;9.81;65.59;101386.88;5030877;28;20410;-76
2023/03/23 04:37:41;;;;;;;45.38;20.58;;;;;;;9.73;65.81;101386.78;5030892;28;20433;-76
2023/03/23 04:40:11;;;;;;;51.55;20.80;;;;;;;9.72;66.21;101387.75;5031654;28;20866;-75
2023/03/23 04:42:38;;;;;;;53.47;19.77;;;;;;;9.69;65.90;101390.72;5031922;28;20398;-75
2023/03/23 04:45:05;;;;;;;48.17;19.85;;;;;;;9.65;66.12;101389.31;5038642;28;20383;-75
2023/03/23 04:47:39;;;;;;;46.50;19.97;;;;;;;9.61;66.34;101395.91;5040899;28;20387;-74
2023/03/23 04:50:06;;;;;;;46.58;20.25;;;;;;;9.70;65.82;101390.53;5040992;28;20822;-76
2023/03/23 04:52:32;;;;;;;57.95;20.00;;;;;;;9.65;65.58;101382.25;5040449;28;20915;-76
2023/03/23 04:54:57;;;;;;;54.40;20.93;;;;;;;9.53;66.39;101394.81;5038683;28;20511;-75
2023/03/23 04:57:27;;;;;;;49.55;21.67;;;;;;;9.51;66.02;101393.31;5040759;28;20427;-76
2023/03/23 04:59:53;;;;;;;47.25;21.02;;;;;;;9.74;65.56;101399.03;5039953;28;20888;-75
2023/03/23 05:02:19;;;;;;;39.03;20.40;;;;;;;9.86;65.04;101397.84;5041544;28;20396;-76
2023/03/23 05:04:44;;;;;;;36.53;20.55;;;;;;;9.75;65.43;101413.94;5040621;28;20385;-76
2023/03/23 05:07:11;;;;;;;41.43;20.10;;;;;;;9.63;66.09;101412.47;5043162;28;20388;-76
2023/03/23 05:09:36;;;;;;;41.78;20.30;;;;;;;9.60;66.55;101418.03;5047732;28;20395;-76
2023/03/23 05:12:09;;;;;;;43.63;20.58;;;;;;;9.55;66.75;101411.38;5061370;28;20396;-76
2023/03/23 05:14:36;;;;;;;52.60;20.58;;;;;;;9.67;66.53;101421.78;5054576;28;20418;-76
2023/03/23 05:17:04;;;;;;;41.90;20.27;;;;;;;9.82;65.65;101427.44;5046151;28;20870;-76
2023/03/23 05:19:29;;;;;;;44.90;19.17;;;;;;;9.77;65.77;101410.16;5039179;28;20400;-78
2023/03/23 05:22:02;;;;;;;68.27;19.43;;;;;;;9.90;65.37;101415.13;5050710;28;20400;-76
2023/03/23 05:24:31;;;;;;;71.35;19.33;;;;;;;9.83;64.81;101423.78;5051780;28;20373;-76
2023/03/23 05:26:57;;;;;;;51.25;19.88;;;;;;;9.77;64.99;101430.50;5038598;28;20418;-77
2023/03/23 05:29:23;;;;;;;48.30;19.88;;;;;;;9.76;65.04;101432.34;5037969;28;20394;-77
2023/03/23 05:31:49;;;;;;;35.45;19.88;;;;;;;9.76;65.41;101436.81;5049634;28;20889;-76
2023/03/23 05:34:15;;;;;;;44.97;19.27;;;;;;;9.80;65.43;101437.34;5050864;28;20411;-77
2023/03/23 05:36:43;;;;;;;39.83;19.73;;;;;;;10.00;64.89;101433.59;5046182;28;20386;-77
2023/03/23 05:39:10;;;;;;;40.25;19.92;;;;;;;10.17;64.84;101436.41;5046610;28;20385;-77
2023/03/23 05:41:36;;;;;;;37.72;20.85;;;;;;;10.27;64.36;101440.69;5036903;28;20389;-77
2023/03/23 05:44:02;;;;;;;28.75;20.23;;;;;;;10.36;64.43;101443.44;5042481;28;20388;-77
2023/03/23 05:46:27;;;;;;;35.47;19.45;;;;;;;10.10;65.05;101433.53;5040135;28;20448;-75
2023/03/23 05:48:53;;;;;;;38.75;21.08;;;;;;;10.04;64.81;101439.44;5043516;28;20467;-76
2023/03/23 05:51:19;;;;;;;58.70;21.35;;;;;;;9.97;65.50;101441.00;5050314;28;20408;-76
2023/03/23 05:53:45;;;;;;;67.38;20.65;;;;;;;9.93;64.95;101454.53;5053446;28;20420;-77
2023/03/23 05:56:12;;;;;;;52.13;19.42;;;;;;;9.92;65.10;101458.19;5054385;28;20384;-78
2023/03/23 05:58:37;;;;;;;46.87;20.67;;;;;;;10.03;65.04;101451.84;5054529;28;20928;-76
2023/03/23 06:01:07;;;;;;;42.17;21.10;;;;;;;10.01;65.54;101464.41;5050235;28;20402;-77
2023/03/23 06:03:32;;;;;;;41.80;20.27;;;;;;;9.97;65.54;101465.66;5050720;28;20404;-77
2023/03/23 06:05:58;;;;;;;34.60;20.40;;;;;;;9.91;65.94;101468.91;5054685;28;20526;-77
2023/03/23 06:08:24;;;;;;;40.88;22.73;;;;;;;10.18;65.92;101460.13;5054171;28;21448;-77
2023/03/23 06:10:51;;;;;;;39.08;19.63;;;;;;;10.39;65.15;101469.63;5055011;28;20381;-78
2023/03/23 06:13:16;;;;;;;40.78;18.88;;;;;;;10.44;64.58;101456.75;5054419;28;20404;-77
2023/03/23 06:15:42;;;;;;;38.47;18.10;;;;;;;10.22;64.41;101461.47;5054265;28;20383;-78
2023/03/23 06:18:07;;;;;;;59.30;17.20;;;;;;;9.99;65.24;101469.00;5054599;28;20388;-78
2023/03/23 06:20:35;;;;;;;32.60;17.67;;;;;;;10.17;65.63;101473.50;5054032;28;20391;-78
2023/03/23 06:23:01;;;;;;;76.85;19.88;;;;;;;10.32;64.92;101474.72;5053059;28;20449;-76
2023/03/23 06:25:27;;;;;;;35.63;19.55;;;;;;;10.25;64.87;101469.13;5054993;28;20876;-76
2023/03/23 06:27:52;;;;;;;37.08;17.85;;;;;;;10.29;64.98;101467.84;5044992;28;20390;-77
2023/03/23 06:30:18;;;;;;;42.83;17.00;;;;;;;10.21;65.51;101475.72;5045895;28;20396;-75
2023/03/23 06:32:47;;;;;;;45.50;17.17;;;;;;;10.13;65.59;101467.69;5038897;28;20534;-76
2023/03/23 06:35:13;;;;;;;37.38;14.60;;;;;;;10.01;65.98;101479.44;5039736;28;20409;-75
2023/03/23 06:37:39;;;;;;;52.08;15.27;;;;;;;10.06;65.79;101482.50;5037129;28;20386;-76
2023/03/23 06:40:06;;;;;;;28.05;16.25;;;;;;;10.12;65.56;101485.41;5034131;28;20386;-77
2023/03/23 06:42:32;;;;;;;34.90;16.47;;;;;;;10.35;65.21;101477.03;5034470;28;20394;-76
2023/03/23 06:45:00;;;;;;;37.25;16.17;;;;;;;10.35;65.02;101478.88;5036106;28;20734;-76
2023/03/23 06:47:32;;;;;;;34.10;16.95;;;;;;;10.51;64.55;101477.25;5033908;28;20597;-77
2023/03/23 06:49:58;;;;;;;29.95;17.45;;;;;;;10.60;64.31;101474.66;5033415;28;20848;-76
2023/03/23 06:52:25;;;;;;;40.40;17.60;;;;;;;10.77;64.84;101478.28;5032731;28;20448;-76
2023/03/23 06:54:51;;;;;;;40.40;18.65;;;;;;;10.83;64.27;101481.16;5031365;28;20735;-76
2023/03/23 06:57:18;;;;;;;39.00;18.17;;;;;;;10.90;64.77;101486.69;5033069;28;20390;-76
2023/03/23 06:59:44;;;;;;;31.95;16.60;;;;;;;10.85;64.43;101489.78;5044817;28;20399;-77
2023/03/23 07:02:14;;;;;;;30.27;16.95;;;;;;;10.98;64.76;101488.56;5036924;28;20387;-78
2023/03/23 07:04:40;;;;;;;45.05;17.27;;;;;;;11.07;63.97;101496.47;5038230;28;20381;-76
2023/03/23 07:07:08;;;;;;;28.45;16.95;;;;;;;11.13;64.26;101491.50;5032050;28;20736;-78
2023/03/23 07:09:34;;;;;;;26.63;18.38;;;;;;;11.19;64.43;101491.72;5047664;28;21058;-78
2023/03/23 07:11:59;;;;;;;28.75;17.80;;;;;;;11.18;63.97;101490.06;5053274;28;20385;-77
2023/03/23 07:14:25;;;;;;;28.20;16.90;;;;;;;11.12;64.17;101505.78;5052740;28;20471;-76
2023/03/23 07:16:51;;;;;;;33.17;18.20;;;;;;;11.02;63.86;101500.53;5053704;28;21081;-76
2023/03/23 07:19:16;;;;;;;34.88;17.92;;;;;;;10.77;64.59;101495.03;5053653;28;20392;-77
2023/03/23 07:21:42;;;;;;;46.20;17.47;;;;;;;10.64;64.93;101486.59;5053584;28;20385;-77
2023/03/23 07:24:13;;;;;;;24.30;18.60;;;;;;;10.67;64.95;101495.09;5053128;28;20842;-76
2023/03/23 07:26:43;;;;;;;31.40;19.00;;;;;;;10.95;64.77;101504.78;5053036;28;20384;-77
2023/03/23 07:29:09;;;;;;;27.05;20.60;;;;;;;11.25;64.66;101504.38;5053454;28;20383;-77
2023/03/23 07:31:35;;;;;;;28.30;18.45;;;;;;;11.44;63.94;101495.38;5054067;28;20480;-76
2023/03/23 07:34:02;;;;;;;24.90;17.48;;;;;;;11.24;63.82;101500.06;5039449;28;20427;-77
2023/03/23 07:36:28;;;;;;;25.38;18.30;;;;;;;11.25;64.33;101506.19;5037832;28;20473;-77
2023/03/23 07:38:54;;;;;;;23.20;17.27;;;;;;;11.30;64.02;101503.91;5053507;28;20388;-76
2023/03/23 07:41:20;;;;;;;27.48;19.17;;;;;;;11.53;64.28;101501.56;5049391;28;20738;-77
2023/03/23 07:43:46;;;;;;;26.13;19.92;;;;;;;11.74;63.95;101498.53;5038207;28;20813;-80
2023/03/23 07:46:13;;;;;;;28.83;20.30;;;;;;;11.92;63.49;101497.63;5053673;28;20376;-78
2023/03/23 07:48:39;;;;;;;23.92;19.05;;;;;;;11.85;63.09;101503.56;5052816;28;20385;-76
2023/03/23 07:51:06;;;;;;;24.27;19.10;;;;;;;11.81;63.38;101499.56;5038190;28;20487;-76
2023/03/23 07:53:33;;;;;;;22.95;17.48;;;;;;;11.85;63.26;101503.56;5048351;28;20751;-77
2023/03/23 07:55:58;;;;;;;23.13;19.10;;;;;;;11.70;63.35;101507.78;5048022;28;20384;-77
2023/03/23 07:58:25;;;;;;;27.05;19.60;;;;;;;11.65;63.51;101500.31;5045084;28;20402;-76
2023/03/23 08:00:52;;;;;;;27.85;20.50;;;;;;;11.75;63.25;101497.53;5052907;28;20835;-77
2023/03/23 08:03:18;;;;;;;27.17;20.17;;;;;;;11.94;62.79;101507.13;5051270;28;20442;-76
2023/03/23 08:05:45;;;;;;;27.43;20.57;;;;;;;12.10;62.43;101503.72;5054547;28;20479;-77
2023/03/23 08:08:10;;;;;;;25.90;20.80;;;;;;;12.20;62.35;101507.06;5050550;28;20377;-77
2023/03/23 08:10:36;;;;;;;28.60;21.35;;;;;;;12.34;61.93;101510.09;5052078;28;20381;-78
2023/03/23 08:13:02;;;;;;;26.45;20.63;;;;;;;12.49;61.60;101515.63;5051904;28;20381;-76
2023/03/23 08:15:28;;;;;;;31.83;21.65;;;;;;;12.53;61.27;101508.97;5052599;28;20383;-77
2023/03/23 08:17:54;;;;;;;28.45;21.30;;;;;;;12.50;61.22;101498.69;5052199;28;20418;-76
2023/03/23 08:20:20;;;;;;;27.67;21.27;;;;;;;12.58;61.07;101512.78;5053278;28;20409;-76
2023/03/23 08:22:55;;;;;;;27.42;21.17;;;;;;;12.71;61.08;101516.81;5055800;28;20395;-77
2023/03/23 08:25:21;;;;;;;26.80;21.33;;;;;;;12.66;60.63;101508.47;5055618;28;20757;-77
2023/03/23 08:27:47;;;;;;;30.77;21.92;;;;;;;12.70;60.98;101505.34;5054418;28;20384;-76
2023/03/23 08:30:15;;;;;;;27.58;20.90;;;;;;;12.87;60.68;101503.53;5048381;28;20396;-77
2023/03/23 08:32:42;;;;;;;26.42;20.27;;;;;;;13.05;60.29;101507.84;5046816;28;20400;-76
2023/03/23 08:35:09;;;;;;;27.75;18.73;;;;;;;13.28;61.53;101518.66;5053147;28;20427;-76
2023/03/23 08:37:35;;;;;;;20.63;14.57;;;;;;;13.45;61.31;101509.69;5047774;28;20390;-76
2023/03/23 08:40:07;;;;;;;22.13;15.18;;;;;;;13.74;61.74;101510.97;5031855;28;20389;-75
2023/03/23 08:42:33;;;;;;;26.23;19.40;;;;;;;13.88;59.39;101512.91;5031894;28;20440;-77
2023/03/23 08:44:58;;;;;;;23.85;18.92;;;;;;;13.68;58.56;101512.44;5031872;28;20385;-78
2023/03/23 08:47:25;;;;;;;25.02;19.05;;;;;;;13.64;58.73;101511.13;5032043;28;20394;-77
2023/03/23 08:49:53;;;;;;;25.60;20.25;;;;;;;13.75;58.08;101513.41;5031032;28;20716;-77
2023/03/23 08:52:19;;;;;;;29.60;21.25;;;;;;;13.89;57.85;101519.88;5032178;28;20503;-77
2023/03/23 08:54:47;;;;;;;24.45;19.42;;;;;;;14.02;57.51;101513.19;5031490;28;20398;-78
2023/03/23 08:57:14;;;;;;;29.15;22.45;;;;;;;14.12;57.35;101511.16;5032616;28;20426;-75
2023/03/23 08:59:41;;;;;;;29.77;19.33;;;;;;;14.21;56.99;101507.44;5032510;28;20491;-76
2023/03/23 09:02:10;;;;;;;23.27;18.98;;;;;;;14.27;57.12;101508.56;5032176;28;20413;-76
2023/03/23 09:04:36;;;;;;;24.00;19.00;;;;;;;14.31;56.85;101518.72;5031579;28;20379;-79
2023/03/23 09:07:02;;;;;;;23.80;18.98;;;;;;;14.42;56.51;101517.50;5031560;28;20382;-77
2023/03/23 09:09:28;;;;;;;22.83;18.98;;;;;;;14.46;56.14;101513.47;5030351;28;20401;-78
2023/03/23 09:11:54;;;;;;;26.37;20.20;;;;;;;14.59;56.10;101506.75;5031383;28;20379;-76
2023/03/23 09:14:19;;;;;;;23.13;19.50;;;;;;;14.68;56.09;101508.34;5030273;28;20987;-77
2023/03/23 09:16:45;;;;;;;24.63;19.35;;;;;;;14.30;55.63;101505.56;5031193;28;20467;-76
2023/03/23 09:19:12;;;;;;;25.47;18.63;;;;;;;14.12;56.58;101511.97;5031826;28;20469;-77
2023/03/23 09:21:38;;;;;;;26.23;19.80;;;;;;;14.19;56.31;101505.94;5031272;28;20387;-76
2023/03/23 09:24:04;;;;;;;25.10;19.37;;;;;;;14.22;56.85;101500.25;5031109;28;20508;-78
2023/03/23 09:26:31;;;;;;;24.20;18.92;;;;;;;14.54;56.26;101500.06;5031502;28;20385;-77
2023/03/23 09:28:57;;;;;;;25.20;19.27;;;;;;;14.78;55.93;101492.91;5032032;28;20878;-78
2023/03/23 09:31:26;;;;;;;25.63;20.38;;;;;;;15.22;55.86;101494.88;5033137;28;20381;-75
2023/03/23 09:33:52;;;;;;;23.53;18.90;;;;;;;15.03;54.84;101495.38;5050037;28;20397;-76
2023/03/23 09:36:21;;;;;;;25.07;19.80;;;;;;;14.93;54.91;101494.81;5049924;28;20387;-76
2023/03/23 09:38:48;;;;;;;25.95;19.63;;;;;;;14.90;54.91;101496.81;5032884;28;20780;-77
2023/03/23 09:41:16;;;;;;;24.02;19.38;;;;;;;14.91;55.07;101487.00;5050073;28;20463;-77
2023/03/23 09:43:50;;;;;;;22.85;18.50;;;;;;;15.01;54.86;101484.88;5049981;28;20377;-78
2023/03/23 09:46:31;;;;;;;23.15;18.40;;;;;;;14.96;54.94;101481.91;5049120;28;20387;-76
2023/03/23 09:49:01;;;;;;;21.85;18.23;;;;;;;15.01;54.81;101486.72;5050888;28;20381;-76
2023/03/23 09:51:32;;;;;;;22.15;18.30;;;;;;;15.09;54.57;101490.16;5056652;28;20412;-77
2023/03/23 09:54:10;;;;;;;24.90;18.85;;;;;;;15.08;54.39;101480.47;5036112;28;20408;-77
2023/03/23 09:56:36;;;;;;;21.13;18.17;;;;;;;15.00;54.49;101488.59;5050217;28;20376;-77
2023/03/23 09:59:13;;;;;;;21.53;18.47;;;;;;;14.90;54.75;101479.97;5050752;28;20400;-76
2023/03/23 10:01:52;;;;;;;24.08;18.40;;;;;;;14.89;54.86;101479.16;5050946;28;20464;-76
2023/03/23 10:04:39;;;;;;;22.17;17.65;;;;;;;14.88;54.40;101472.16;5032262;28;20375;-78
2023/03/23 10:07:25;;;;;;;21.67;18.40;;;;;;;14.72;53.92;101472.28;5031691;28;20410;-77
2023/03/23 10:09:57;;;;;;;22.90;18.45;;;;;;;14.89;53.64;101475.66;5031562;28;20465;-76
2023/03/23 10:12:44;;;;;;;20.83;17.90;;;;;;;15.06;53.44;101477.16;5031446;28;21066;-77
2023/03/23 10:15:34;;;;;;;23.55;18.75;;;;;;;15.02;52.94;101467.06;5031613;28;20402;-76
2023/03/23 10:17:59;;;;;;;23.25;18.88;;;;;;;14.99;52.93;101473.56;5031679;28;20382;-75
2023/03/23 10:20:47;;;;;;;20.73;17.55;;;;;;;15.10;53.09;101473.13;5031509;28;20374;-77
2023/03/23 10:23:19;;;;;;;20.33;16.90;;;;;;;15.18;53.02;101474.06;5031285;28;20385;-76
2023/03/23 10:26:00;;;;;;;21.75;17.50;;;;;;;15.26;52.83;101466.78;5032137;28;20405;-76
2023/03/23 10:28:43;;;;;;;21.98;17.17;;;;;;;15.31;53.04;101460.91;5031402;28;20415;-76
2023/03/23 10:31:22;;;;;;;21.67;17.52;;;;;;;15.33;52.81;101464.22;5035037;28;20874;-76
2023/03/23 10:33:50;;;;;;;21.10;16.88;;;;;;;15.28;52.70;101464.75;5033869;28;20398;-76
2023/03/23 10:36:37;;;;;;;22.13;17.13;;;;;;;15.28;52.47;101461.28;5032517;28;20774;-76
2023/03/23 10:39:09;;;;;;;21.53;16.37;;;;;;;15.47;52.60;101458.06;5033459;28;20385;-76
2023/03/23 10:41:35;;;;;;;19.83;16.35;;;;;;;15.53;52.07;101450.34;5032123;28;20890;-77
2023/03/23 10:44:07;;;;;;;20.20;16.60;;;;;;;15.60;51.84;101451.25;5031807;28;20859;-78
2023/03/23 10:47:03;;;;;;;20.30;16.08;;;;;;;15.61;52.07;101432.38;5032859;28;20374;-77
2023/03/23 10:49:33;;;;;;;19.08;15.82;;;;;;;15.82;51.51;101447.66;5032865;28;20391;-77
2023/03/23 10:52:05;;;;;;;19.50;15.25;;;;;;;15.87;51.18;101436.41;5035175;28;20421;-77
2023/03/23 10:54:46;;;;;;;19.77;14.95;;;;;;;16.03;50.93;101436.19;5035951;28;20414;-76
2023/03/23 10:57:20;;;;;;;17.73;14.63;;;;;;;16.03;50.64;101438.03;5034901;28;20393;-78
2023/03/23 10:59:45;;;;;;;18.50;14.68;;;;;;;16.15;51.04;101433.88;5017767;28;20394;-76
2023/03/23 11:02:18;;;;;;;17.93;15.03;;;;;;;16.18;50.94;101421.94;5033221;28;20375;-76
2023/03/23 11:04:58;;;;;;;19.03;14.73;;;;;;;16.12;50.11;101417.38;5033349;28;20367;-76
2023/03/23 11:07:28;;;;;;;17.60;14.97;;;;;;;16.14;49.96;101413.47;5033012;28;20379;-76
2023/03/23 11:09:58;;;;;;;16.77;14.98;;;;;;;16.21;49.38;101417.03;5034072;28;20378;-75
2023/03/23 11:12:24;;;;;;;19.93;15.43;;;;;;;16.10;48.96;101409.53;5033441;28;20879;-76
2023/03/23 11:14:50;;;;;;;17.70;15.30;;;;;;;16.14;48.96;101404.63;5034308;28;20406;-77
2023/03/23 11:17:26;;;;;;;17.00;14.93;;;;;;;16.28;49.10;101411.78;5033539;28;20378;-75
2023/03/23 11:19:56;;;;;;;15.88;13.43;;;;;;;16.27;48.14;101419.97;5032470;28;20452;-76